createdAt,value
2018-11-06T00:02:22.157Z,7.76
2018-11-06T00:04:54.765Z,7.70
2018-11-06T00:07:21.685Z,7.64
2018-11-06T00:09:48.629Z,7.61
2018-11-06T00:12:15.569Z,7.54
2018-11-06T00:14:42.472Z,7.39
2018-11-06T00:17:09.413Z,7.33
2018-11-06T00:19:36.316Z,7.25
2018-11-06T00:22:03.297Z,7.20
2018-11-06T00:24:31.117Z,7.21
2018-11-06T00:26:58.029Z,7.15
2018-11-06T00:29:24.942Z,7.08
2018-11-06T00:31:51.860Z,6.98
2018-11-06T00:34:18.758Z,6.95
2018-11-06T00:36:45.645Z,6.97
2018-11-06T00:39:12.546Z,7.03
2018-11-06T00:41:39.554Z,6.95
2018-11-06T00:44:06.918Z,6.88
2018-11-06T00:46:33.836Z,6.75
2018-11-06T00:49:00.731Z,6.63
2018-11-06T00:51:27.657Z,6.51
2018-11-06T00:53:55.265Z,6.38
2018-11-06T00:56:22.205Z,6.27
2018-11-06T00:58:49.113Z,6.20
2018-11-06T01:01:16.077Z,6.24
2018-11-06T01:03:53.575Z,6.29
2018-11-06T01:06:21.124Z,6.28
2018-11-06T01:08:48.047Z,6.26
2018-11-06T01:11:15.144Z,6.24
2018-11-06T01:13:43.400Z,6.25
2018-11-06T01:16:10.348Z,6.24
2018-11-06T01:18:44.130Z,6.16
2018-11-06T01:21:13.373Z,6.15
2018-11-06T01:23:40.307Z,6.11
2018-11-06T01:26:07.301Z,6.04
2018-11-06T01:28:34.244Z,5.94
2018-11-06T01:31:01.245Z,6.00
2018-11-06T01:33:28.168Z,5.99
2018-11-06T01:35:55.108Z,5.97
2018-11-06T01:38:22.039Z,5.98
2018-11-06T01:40:48.964Z,6.07
2018-11-06T01:43:15.921Z,6.13
2018-11-06T01:45:42.849Z,6.23
2018-11-06T01:48:09.772Z,6.22
2018-11-06T01:50:36.684Z,6.13
2018-11-06T01:53:03.744Z,6.09
2018-11-06T01:55:30.681Z,6.04
2018-11-06T01:57:57.637Z,5.98
2018-11-06T02:00:24.581Z,6.01
2018-11-06T02:02:51.532Z,6.06
2018-11-06T02:05:18.708Z,6.00
2018-11-06T02:07:46.885Z,5.97
2018-11-06T02:10:14.444Z,6.01
2018-11-06T02:12:42.313Z,6.05
2018-11-06T02:15:09.746Z,6.03
2018-11-06T02:17:37.623Z,6.00
2018-11-06T02:20:05.053Z,5.90
2018-11-06T02:22:32.028Z,5.81
2018-11-06T02:24:58.969Z,5.82
2018-11-06T02:27:25.935Z,5.78
2018-11-06T02:29:52.873Z,5.83
2018-11-06T02:32:20.136Z,5.90
2018-11-06T02:34:46.937Z,5.94
2018-11-06T02:37:13.865Z,5.92
2018-11-06T02:39:40.841Z,5.84
2018-11-06T02:42:07.800Z,5.79
2018-11-06T02:44:34.736Z,5.71
2018-11-06T02:47:01.664Z,5.68
2018-11-06T02:49:28.600Z,5.76
2018-11-06T02:51:55.548Z,5.85
2018-11-06T02:54:22.494Z,5.85
2018-11-06T02:56:49.479Z,5.86
2018-11-06T02:59:16.408Z,5.84
2018-11-06T03:01:43.356Z,5.84
2018-11-06T03:04:10.292Z,5.83
2018-11-06T03:06:37.253Z,5.84
2018-11-06T03:09:05.613Z,5.83
2018-11-06T03:11:32.561Z,5.86
2018-11-06T03:13:59.503Z,5.84
2018-11-06T03:16:26.446Z,5.81
2018-11-06T03:18:53.392Z,5.82
2018-11-06T03:21:20.326Z,5.81
2018-11-06T03:23:54.245Z,5.80
2018-11-06T03:26:21.194Z,5.71
2018-11-06T03:28:48.110Z,5.73
2018-11-06T03:31:15.049Z,5.80
2018-11-06T03:33:42.001Z,5.89
2018-11-06T03:36:08.926Z,5.97
2018-11-06T03:38:35.880Z,6.02
2018-11-06T03:41:02.821Z,6.03
2018-11-06T03:43:29.772Z,6.12
2018-11-06T03:45:56.712Z,6.17
2018-11-06T03:48:23.665Z,6.24
2018-11-06T03:50:50.601Z,6.24
2018-11-06T03:53:17.536Z,6.24
2018-11-06T03:55:44.457Z,6.29
2018-11-06T03:58:11.422Z,6.31
2018-11-06T04:00:38.353Z,6.35
2018-11-06T04:03:05.506Z,6.38
2018-11-06T04:05:32.425Z,6.38
2018-11-06T04:07:59.348Z,6.37
2018-11-06T04:10:26.256Z,6.44
2018-11-06T04:12:59.787Z,6.43
2018-11-06T04:15:26.719Z,6.53
2018-11-06T04:17:53.637Z,6.57
2018-11-06T04:20:20.533Z,6.59
2018-11-06T04:22:47.428Z,6.59
2018-11-06T04:25:14.365Z,6.58
2018-11-06T04:27:41.277Z,6.62
2018-11-06T04:30:10.147Z,6.67
2018-11-06T04:35:11.150Z,6.72
2018-11-06T04:37:38.768Z,6.72
2018-11-06T04:40:07.268Z,6.75
2018-11-06T04:42:34.312Z,6.81
2018-11-06T04:45:01.239Z,6.84
2018-11-06T04:47:28.181Z,6.89
2018-11-06T04:49:55.302Z,6.90
2018-11-06T04:52:22.257Z,6.90
2018-11-06T04:54:49.177Z,6.93
2018-11-06T04:57:16.111Z,6.94
2018-11-06T04:59:43.041Z,6.94
2018-11-06T05:02:10.056Z,6.94
2018-11-06T05:04:36.924Z,6.90
2018-11-06T05:07:04.422Z,6.95
2018-11-06T05:09:31.250Z,6.98
2018-11-06T05:11:58.163Z,7.02
2018-11-06T05:14:25.143Z,7.06
2018-11-06T05:16:52.013Z,7.08
2018-11-06T05:19:18.936Z,7.03
2018-11-06T05:21:45.864Z,6.99
2018-11-06T05:24:12.812Z,6.98
2018-11-06T05:26:39.825Z,7.02
2018-11-06T05:29:06.759Z,7.06
2018-11-06T05:31:33.683Z,7.10
2018-11-06T05:34:00.625Z,7.14
2018-11-06T05:36:27.576Z,7.16
2018-11-06T05:38:54.594Z,7.10
2018-11-06T05:41:21.465Z,7.06
2018-11-06T05:43:48.452Z,7.06
2018-11-06T05:46:15.372Z,7.07
2018-11-06T05:48:42.302Z,7.09
2018-11-06T05:51:09.258Z,7.06
2018-11-06T05:53:36.190Z,7.06
2018-11-06T05:56:03.133Z,7.06
2018-11-06T05:58:30.047Z,7.06
2018-11-06T06:00:56.990Z,7.00
2018-11-06T06:03:23.931Z,7.01
2018-11-06T06:05:50.881Z,7.04
2018-11-06T06:08:17.819Z,7.01
2018-11-06T06:10:44.773Z,7.00
2018-11-06T06:13:11.719Z,7.05
2018-11-06T06:15:38.669Z,7.03
2018-11-06T06:18:05.606Z,6.90
2018-11-06T06:20:32.541Z,7.07
2018-11-06T06:22:59.551Z,7.08
2018-11-06T06:25:26.471Z,7.08
2018-11-06T06:27:53.678Z,7.03
2018-11-06T06:30:20.604Z,7.04
2018-11-06T06:32:47.525Z,7.02
2018-11-06T06:35:14.509Z,7.02
2018-11-06T06:37:41.670Z,7.00
2018-11-06T06:40:10.729Z,7.00
2018-11-06T06:42:37.613Z,7.03
2018-11-06T06:45:06.458Z,7.00
2018-11-06T06:47:33.394Z,6.99
2018-11-06T06:50:00.333Z,7.02
2018-11-06T06:52:27.277Z,7.01
2018-11-06T06:54:54.267Z,7.00
2018-11-06T06:57:21.195Z,6.97
2018-11-06T06:59:48.084Z,6.99
2018-11-06T07:02:15.026Z,6.95
2018-11-06T07:04:41.961Z,6.94
2018-11-06T07:07:08.900Z,6.95
2018-11-06T07:09:35.827Z,6.92
2018-11-06T07:12:02.754Z,6.92
2018-11-06T07:14:29.673Z,6.94
2018-11-06T07:16:56.596Z,6.95
2018-11-06T07:19:23.530Z,6.95
2018-11-06T07:21:50.698Z,6.98
2018-11-06T07:24:17.652Z,7.04
2018-11-06T07:26:44.600Z,7.08
2018-11-06T07:29:11.518Z,7.11
2018-11-06T07:31:38.458Z,7.12
2018-11-06T07:34:05.390Z,7.14
2018-11-06T07:36:32.369Z,7.14
2018-11-06T07:38:59.289Z,7.16
2018-11-06T07:41:26.268Z,7.08
2018-11-06T07:43:53.219Z,7.04
2018-11-06T07:46:20.165Z,7.03
2018-11-06T07:48:47.094Z,6.99
2018-11-06T07:51:14.049Z,6.98
2018-11-06T07:53:40.995Z,7.03
2018-11-06T07:56:07.988Z,7.05
2018-11-06T07:58:34.936Z,7.07
2018-11-06T08:01:01.904Z,7.07
2018-11-06T08:03:28.843Z,7.09
2018-11-06T08:05:55.782Z,7.04
2018-11-06T08:08:22.713Z,7.08
2018-11-06T08:10:49.677Z,7.08
2018-11-06T08:13:16.609Z,7.03
2018-11-06T08:15:43.546Z,7.03
2018-11-06T08:18:10.474Z,7.11
2018-11-06T08:20:37.499Z,7.09
2018-11-06T08:23:04.401Z,7.10
2018-11-06T08:25:31.858Z,7.14
2018-11-06T08:27:58.792Z,7.14
2018-11-06T08:30:25.916Z,7.18
2018-11-06T08:32:53.078Z,7.23
2018-11-06T08:35:19.767Z,7.18
2018-11-06T08:37:46.717Z,7.09
2018-11-06T08:40:15.763Z,7.07
2018-11-06T08:42:42.873Z,7.09
2018-11-06T08:45:11.090Z,7.03
2018-11-06T08:47:39.473Z,7.04
2018-11-06T08:50:07.529Z,7.08
2018-11-06T08:52:34.504Z,7.15
2018-11-06T08:55:03.749Z,7.19
2018-11-06T08:57:31.333Z,7.25
2018-11-06T08:59:58.275Z,7.32
2018-11-06T09:02:25.247Z,7.41
2018-11-06T09:04:52.195Z,7.40
2018-11-06T09:07:19.134Z,7.44
2018-11-06T09:09:46.649Z,7.50
2018-11-06T09:12:13.628Z,7.63
2018-11-06T09:14:41.225Z,7.66
2018-11-06T09:17:08.260Z,7.65
2018-11-06T09:19:35.124Z,7.62
2018-11-06T09:22:02.053Z,7.60
2018-11-06T09:24:28.998Z,7.61
2018-11-06T09:26:55.974Z,7.65
2018-11-06T09:29:22.924Z,7.69
2018-11-06T09:31:49.866Z,7.72
2018-11-06T09:34:16.803Z,7.77
2018-11-06T09:36:43.713Z,7.82
2018-11-06T09:39:11.302Z,7.80
2018-11-06T09:41:38.549Z,7.88
2018-11-06T09:44:05.491Z,7.93
2018-11-06T09:46:32.438Z,7.96
2018-11-06T09:48:59.390Z,7.86
2018-11-06T09:51:26.310Z,7.89
2018-11-06T09:53:53.249Z,7.91
2018-11-06T09:56:20.201Z,7.99
2018-11-06T09:58:47.142Z,8.02
2018-11-06T10:01:14.150Z,8.04
2018-11-06T10:03:41.079Z,8.07
2018-11-06T10:06:08.115Z,8.13
2018-11-06T10:08:34.969Z,8.15
2018-11-06T10:11:01.896Z,8.16
2018-11-06T10:13:28.842Z,8.24
2018-11-06T10:15:55.782Z,8.24
2018-11-06T10:18:22.725Z,8.26
2018-11-06T10:20:49.664Z,8.34
2018-11-06T10:23:16.602Z,8.38
2018-11-06T10:25:43.554Z,8.35
2018-11-06T10:28:10.503Z,8.34
2018-11-06T10:30:37.450Z,8.30
2018-11-06T10:33:04.654Z,8.31
2018-11-06T10:35:31.608Z,8.39
2018-11-06T10:37:58.553Z,8.42
2018-11-06T10:40:25.499Z,8.49
2018-11-06T10:42:52.420Z,8.56
2018-11-06T10:45:19.793Z,8.59
2018-11-06T10:47:47.134Z,8.66
2018-11-06T10:50:14.824Z,8.65
2018-11-06T10:52:42.172Z,8.69
2018-11-06T10:55:09.628Z,8.74
2018-11-06T10:57:37.801Z,8.72
2018-11-06T11:00:06.574Z,8.68
2018-11-06T11:02:39.305Z,8.63
2018-11-06T11:05:06.286Z,8.68
2018-11-06T11:07:33.217Z,8.82
2018-11-06T11:10:00.186Z,8.84
2018-11-06T11:12:27.165Z,8.89
2018-11-06T11:14:54.088Z,8.88
2018-11-06T11:17:21.010Z,8.84
2018-11-06T11:19:47.961Z,8.84
2018-11-06T11:22:14.938Z,8.85
2018-11-06T11:24:41.876Z,8.91
2018-11-06T11:29:43.085Z,9.04
2018-11-06T11:32:10.005Z,9.08
2018-11-06T11:34:36.954Z,9.04
2018-11-06T11:37:03.889Z,9.18
2018-11-06T11:39:30.845Z,9.41
2018-11-06T11:41:57.773Z,9.61
2018-11-06T11:44:24.946Z,9.75
2018-11-06T11:46:51.881Z,10.01
2018-11-06T11:49:18.789Z,10.09
2018-11-06T11:51:45.768Z,10.06
2018-11-06T11:54:12.777Z,10.24
2018-11-06T11:56:39.721Z,10.44
2018-11-06T11:59:06.689Z,10.25
2018-11-06T12:01:33.650Z,10.09
2018-11-06T12:04:00.595Z,10.05
2018-11-06T12:06:27.541Z,10.11
2018-11-06T12:08:54.508Z,10.18
2018-11-06T12:11:21.442Z,10.28
2018-11-06T12:13:48.357Z,10.32
2018-11-06T12:16:15.314Z,10.32
2018-11-06T12:18:42.275Z,10.39
2018-11-06T12:21:09.210Z,10.33
2018-11-06T12:23:36.174Z,10.26
2018-11-06T12:26:03.125Z,10.29
2018-11-06T12:28:30.062Z,10.36
2018-11-06T12:30:57.018Z,10.44
2018-11-06T12:33:23.929Z,10.45
2018-11-06T12:35:50.870Z,10.45
2018-11-06T12:38:17.803Z,10.32
2018-11-06T12:40:44.759Z,10.26
2018-11-06T12:43:11.752Z,10.26
2018-11-06T12:45:38.633Z,10.39
2018-11-06T12:48:05.593Z,10.48
2018-11-06T12:50:32.529Z,10.37
2018-11-06T12:52:59.478Z,10.43
2018-11-06T12:55:26.385Z,10.57
2018-11-06T12:57:53.316Z,10.64
2018-11-06T13:00:20.712Z,10.56
2018-11-06T13:02:47.710Z,10.46
2018-11-06T13:05:14.725Z,10.36
2018-11-06T13:07:42.482Z,10.29
2018-11-06T13:10:10.233Z,10.19
2018-11-06T13:12:37.467Z,10.19
2018-11-06T13:15:05.321Z,10.19
2018-11-06T13:17:32.246Z,10.32
2018-11-06T13:19:59.173Z,10.44
2018-11-06T13:22:26.123Z,10.51
2018-11-06T13:24:53.036Z,10.52
2018-11-06T13:27:20.235Z,10.61
2018-11-06T13:29:47.160Z,10.57
2018-11-06T13:32:14.100Z,10.56
2018-11-06T13:34:41.064Z,10.47
2018-11-06T13:37:07.994Z,10.39
2018-11-06T13:39:34.948Z,10.34
2018-11-06T13:42:01.965Z,10.40
2018-11-06T13:44:29.094Z,10.31
2018-11-06T13:46:55.818Z,10.18
2018-11-06T13:49:22.948Z,10.12
2018-11-06T13:51:49.878Z,10.17
2018-11-06T13:54:16.821Z,10.06
2018-11-06T13:56:43.770Z,9.95
2018-11-06T13:59:10.692Z,9.92
2018-11-06T14:01:37.627Z,9.96
2018-11-06T14:04:04.705Z,10.00
2018-11-06T14:06:31.633Z,10.01
2018-11-06T14:08:58.597Z,10.03
2018-11-06T14:11:25.518Z,10.07
2018-11-06T14:13:52.473Z,10.10
2018-11-06T14:16:19.437Z,10.10
2018-11-06T14:18:46.365Z,10.08
2018-11-06T14:21:13.354Z,10.04
2018-11-06T14:23:40.224Z,9.96
2018-11-06T14:26:07.150Z,9.86
2018-11-06T14:28:34.129Z,9.78
2018-11-06T14:31:01.061Z,9.76
2018-11-06T14:33:27.979Z,9.72
2018-11-06T14:35:55.008Z,9.71
2018-11-06T14:38:21.870Z,9.74
2018-11-06T14:40:48.801Z,9.72
2018-11-06T14:43:15.767Z,9.73
2018-11-06T14:45:42.698Z,9.74
2018-11-06T14:48:09.639Z,9.72
2018-11-06T14:50:36.591Z,9.73
2018-11-06T14:53:03.640Z,9.71
2018-11-06T14:55:30.590Z,9.71
2018-11-06T14:57:57.496Z,9.75
2018-11-06T15:00:24.444Z,9.78
2018-11-06T15:02:52.387Z,9.76
2018-11-06T15:05:20.275Z,9.75
2018-11-06T15:07:47.396Z,9.73
2018-11-06T15:10:14.453Z,9.74
2018-11-06T15:12:41.712Z,9.72
2018-11-06T15:15:09.902Z,9.70
2018-11-06T15:17:36.890Z,9.67
2018-11-06T15:20:05.472Z,9.63
2018-11-06T15:22:32.403Z,9.58
2018-11-06T15:24:59.334Z,9.48
2018-11-06T15:27:26.253Z,9.41
2018-11-06T15:29:53.461Z,9.40
2018-11-06T15:32:20.493Z,9.38
2018-11-06T15:34:47.375Z,9.35
2018-11-06T15:37:14.320Z,9.38
2018-11-06T15:39:41.257Z,9.35
2018-11-06T15:42:08.250Z,9.32
2018-11-06T15:44:35.150Z,9.30
2018-11-06T15:47:02.083Z,9.30
2018-11-06T15:49:29.016Z,9.60
2018-11-06T15:51:55.975Z,9.58
2018-11-06T15:54:22.954Z,9.48
2018-11-06T15:56:49.867Z,9.38
2018-11-06T15:59:16.803Z,9.41
2018-11-06T16:01:43.814Z,9.35
2018-11-06T16:04:10.720Z,9.30
2018-11-06T16:06:37.644Z,9.35
2018-11-06T16:09:05.801Z,9.28
2018-11-06T16:11:32.769Z,9.21
2018-11-06T16:13:59.695Z,9.29
2018-11-06T16:16:26.656Z,9.30
2018-11-06T16:18:53.614Z,9.28
2018-11-06T16:21:21.381Z,9.22
2018-11-06T16:23:48.308Z,9.17
2018-11-06T16:26:15.273Z,9.17
2018-11-06T16:28:42.214Z,9.21
2018-11-06T16:31:09.188Z,9.21
2018-11-06T16:33:36.105Z,9.25
2018-11-06T16:36:03.062Z,9.24
2018-11-06T16:38:30.024Z,9.24
2018-11-06T16:40:56.958Z,9.22
2018-11-06T16:43:23.929Z,9.17
2018-11-06T16:45:50.894Z,9.10
2018-11-06T16:48:17.891Z,8.98
2018-11-06T16:50:44.801Z,8.90
2018-11-06T16:53:11.751Z,8.84
2018-11-06T16:55:38.676Z,8.78
2018-11-06T16:58:05.633Z,8.65
2018-11-06T17:00:32.600Z,8.65
2018-11-06T17:02:59.545Z,8.63
2018-11-06T17:05:26.469Z,8.64
2018-11-06T17:07:53.474Z,8.63
2018-11-06T17:10:20.560Z,8.58
2018-11-06T17:12:47.530Z,8.53
2018-11-06T17:15:16.832Z,8.51
2018-11-06T17:17:44.600Z,8.52
2018-11-06T17:20:12.242Z,8.49
2018-11-06T17:22:39.302Z,8.54
2018-11-06T17:25:07.583Z,8.52
2018-11-06T17:27:34.736Z,8.48
2018-11-06T17:30:01.665Z,8.50
2018-11-06T17:32:28.630Z,8.49
2018-11-06T17:34:55.555Z,8.46
2018-11-06T17:37:22.528Z,8.39
2018-11-06T17:39:49.445Z,8.32
2018-11-06T17:42:16.375Z,8.30
2018-11-06T17:44:43.297Z,8.28
2018-11-06T17:47:10.232Z,8.20
2018-11-06T17:49:37.162Z,8.07
2018-11-06T17:52:04.357Z,7.99
2018-11-06T17:54:31.298Z,7.94
2018-11-06T17:56:58.240Z,7.88
2018-11-06T17:59:25.204Z,7.86
2018-11-06T18:01:52.158Z,7.84
2018-11-06T18:04:19.345Z,7.83
2018-11-06T18:06:46.090Z,7.75
2018-11-06T18:09:13.368Z,7.70
2018-11-06T18:11:40.312Z,7.67
2018-11-06T18:14:07.269Z,7.64
2018-11-06T18:16:34.272Z,7.60
2018-11-06T18:19:01.225Z,7.60
2018-11-06T18:21:28.169Z,7.58
2018-11-06T18:23:55.120Z,7.57
2018-11-06T18:26:22.082Z,7.57
2018-11-06T18:28:49.033Z,7.55
2018-11-06T18:31:15.972Z,7.51
2018-11-06T18:33:42.937Z,7.45
2018-11-06T18:36:09.837Z,7.49
2018-11-06T18:38:36.765Z,7.39
2018-11-06T18:41:03.822Z,7.35
2018-11-06T18:43:30.761Z,7.28
2018-11-06T18:45:57.684Z,7.24
2018-11-06T18:48:24.606Z,7.17
2018-11-06T18:50:51.521Z,7.14
2018-11-06T18:53:18.464Z,7.13
2018-11-06T18:55:45.417Z,7.12
2018-11-06T18:58:12.447Z,7.10
2018-11-06T19:00:39.271Z,7.10
2018-11-06T19:03:06.176Z,7.05
2018-11-06T19:05:33.088Z,7.17
2018-11-06T19:08:00.013Z,7.18
2018-11-06T19:10:26.956Z,7.13
2018-11-06T19:12:53.879Z,7.07
2018-11-06T19:15:22.037Z,7.27
2018-11-06T19:17:49.489Z,7.36
2018-11-06T19:20:16.708Z,7.41
2018-11-06T19:22:43.681Z,7.51
2018-11-06T19:25:11.469Z,7.49
2018-11-06T19:27:38.614Z,7.51
2018-11-06T19:30:07.293Z,7.54
2018-11-06T19:32:34.258Z,7.48
2018-11-06T19:35:01.221Z,7.46
2018-11-06T19:37:28.120Z,7.44
2018-11-06T19:39:55.044Z,7.41
2018-11-06T19:42:22.031Z,7.40
2018-11-06T19:44:48.928Z,7.35
2018-11-06T19:47:15.891Z,7.38
2018-11-06T19:49:42.805Z,7.35
2018-11-06T19:52:09.747Z,7.37
2018-11-06T19:54:37.380Z,7.40
2018-11-06T19:57:05.096Z,7.37
2018-11-06T19:59:32.891Z,7.35
2018-11-06T20:02:00.588Z,7.25
2018-11-06T20:04:27.583Z,7.21
2018-11-06T20:06:54.473Z,7.26
2018-11-06T20:09:21.441Z,7.31
2018-11-06T20:11:48.456Z,7.31
2018-11-06T20:14:15.951Z,7.20
2018-11-06T20:16:43.569Z,7.13
2018-11-06T20:19:11.268Z,7.10
2018-11-06T20:21:38.512Z,7.16
2018-11-06T20:24:06.198Z,7.21
2018-11-06T20:26:33.353Z,7.15
2018-11-06T20:29:00.781Z,7.06
2018-11-06T20:31:27.729Z,7.08
2018-11-06T20:33:54.711Z,7.15
2018-11-06T20:36:21.626Z,7.18
2018-11-06T20:38:49.237Z,7.23
2018-11-06T20:41:17.267Z,7.27
2018-11-06T20:43:45.434Z,7.29
2018-11-06T20:46:13.161Z,7.28
2018-11-06T20:48:40.767Z,7.34
2018-11-06T20:51:08.438Z,7.38
2018-11-06T20:53:35.438Z,7.36
2018-11-06T20:56:02.331Z,7.36
2018-11-06T20:58:29.685Z,7.40
2018-11-06T21:00:57.419Z,7.43
2018-11-06T21:03:24.342Z,7.42
2018-11-06T21:05:51.313Z,7.45
2018-11-06T21:08:18.205Z,7.44
2018-11-06T21:10:45.176Z,7.46
2018-11-06T21:13:12.088Z,7.46
2018-11-06T21:15:39.012Z,7.44
2018-11-06T21:18:06.072Z,7.45
2018-11-06T21:20:32.991Z,7.44
2018-11-06T21:22:59.941Z,7.42
2018-11-06T21:25:27.187Z,7.42
2018-11-06T21:27:54.350Z,7.37
2018-11-06T21:30:21.854Z,7.32
2018-11-06T21:32:50.270Z,7.29
2018-11-06T21:35:17.205Z,7.25
2018-11-06T21:37:44.114Z,7.23
2018-11-06T21:40:13.322Z,7.25
2018-11-06T21:42:41.899Z,7.27
2018-11-06T21:45:10.019Z,7.29
2018-11-06T21:47:36.901Z,7.28
2018-11-06T21:50:05.154Z,7.24
2018-11-06T21:52:32.069Z,7.16
2018-11-06T21:54:58.982Z,7.06
2018-11-06T21:57:25.907Z,6.98
2018-11-06T21:59:52.826Z,6.95
2018-11-06T22:02:19.767Z,6.94
2018-11-06T22:04:46.703Z,6.81
2018-11-06T22:07:13.629Z,6.83
2018-11-06T22:09:40.569Z,6.84
2018-11-06T22:12:07.518Z,6.87
2018-11-06T22:14:34.452Z,6.94
2018-11-06T22:17:01.416Z,7.01
2018-11-06T22:19:28.406Z,7.09
2018-11-06T22:21:55.339Z,7.15
2018-11-06T22:24:23.677Z,7.14
2018-11-06T22:26:50.621Z,7.16
2018-11-06T22:29:17.554Z,7.20
2018-11-06T22:31:44.715Z,7.16
2018-11-06T22:34:11.508Z,7.13
2018-11-06T22:36:38.453Z,7.08
2018-11-06T22:39:07.124Z,7.03
2018-11-06T22:41:34.044Z,7.03
2018-11-06T22:44:00.953Z,6.96
2018-11-06T22:46:27.885Z,6.93
2018-11-06T22:48:54.794Z,6.86
2018-11-06T22:51:21.745Z,6.74
2018-11-06T22:53:48.669Z,6.56
2018-11-06T22:56:15.640Z,6.57
2018-11-06T22:58:42.567Z,6.59
2018-11-06T23:01:17.038Z,6.68
2018-11-06T23:03:44.812Z,6.70
2018-11-06T23:06:11.960Z,6.71
2018-11-06T23:08:38.694Z,6.67
2018-11-06T23:11:05.648Z,6.67
2018-11-06T23:13:32.580Z,6.58
2018-11-06T23:15:59.505Z,6.44
2018-11-06T23:18:26.437Z,6.32
2018-11-06T23:20:53.346Z,6.19
2018-11-06T23:23:20.282Z,6.18
2018-11-06T23:25:47.213Z,6.13
2018-11-06T23:28:14.153Z,6.05
2018-11-06T23:30:41.065Z,5.95
2018-11-06T23:33:08.005Z,5.90
2018-11-06T23:35:34.965Z,5.96
2018-11-06T23:38:01.890Z,6.01
2018-11-06T23:40:28.824Z,6.07
2018-11-06T23:42:55.762Z,6.04
2018-11-06T23:45:22.689Z,5.95
2018-11-06T23:47:49.615Z,5.96
2018-11-06T23:50:16.536Z,6.10
2018-11-06T23:52:43.486Z,6.26
2018-11-06T23:55:10.527Z,6.40
2018-11-06T23:57:37.494Z,6.38
